Who's Online

We have 9 guests online

GK Weather

An error occured during parsing XML data. Please try again.

Aviation WX

[source: ADDS]
METAR
KIAD 240552Z 01006KT 10SM BKN080 14/13 A2998 RMK AO2 PRESRR SLP150 T01390128 10156 20122 55000 =
TAF
KIAD 240530Z 2406/2512 29004KT 6SM BR SCT070 BKN080 FM240900 30004KT 5SM BR SCT080 BKN200 FM241200 31006KT P6SM FEW080 FEW250 FM250200 25004KT P6SM FEW070 FEW250 =
SR / SS: 23:34 / 14:02 UTC (Washington-Dulles 2016-05-23)

JoomlaWatch Agent

Home Links
We are regularly out on the Web. When we find a great site we list it.